createdAt,value
2023-07-15T00:00:12.945Z,66.58
2023-07-15T00:03:54.692Z,66.83
2023-07-15T00:07:02.790Z,67.05
2023-07-15T00:10:29.962Z,65.69
2023-07-15T00:13:36.137Z,66.71
2023-07-15T00:16:45.100Z,66.80
2023-07-15T00:20:12.928Z,66.76
2023-07-15T00:23:41.392Z,66.54
2023-07-15T00:27:08.496Z,66.86
2023-07-15T00:30:18.175Z,66.36
2023-07-15T00:33:45.288Z,66.46
2023-07-15T00:37:12.365Z,67.37
2023-07-15T00:40:41.068Z,66.90
2023-07-15T00:44:07.498Z,66.58
2023-07-15T00:47:48.393Z,67.95
2023-07-15T00:51:15.480Z,67.44
2023-07-15T00:54:45.541Z,66.81
2023-07-15T00:58:16.243Z,67.95
2023-07-15T01:04:24.158Z,67.70
2023-07-15T01:07:36.567Z,68.14
2023-07-15T01:11:07.729Z,67.57
2023-07-15T01:14:34.746Z,67.43
2023-07-15T01:17:44.945Z,67.51
2023-07-15T01:21:11.866Z,67.35
2023-07-15T01:24:39.806Z,67.09
2023-07-15T01:28:09.493Z,67.35
2023-07-15T01:31:18.002Z,66.24
2023-07-15T01:34:45.154Z,67.08
2023-07-15T01:37:37.916Z,67.24
2023-07-15T01:41:05.916Z,66.95
2023-07-15T01:44:33.735Z,66.55
2023-07-15T01:48:05.692Z,66.89
2023-07-15T01:51:33.422Z,66.56
2023-07-15T01:54:38.605Z,66.67
2023-07-15T01:58:09.286Z,66.11
2023-07-15T02:01:45.424Z,66.81
2023-07-15T02:04:55.431Z,66.26
2023-07-15T02:07:48.810Z,66.27
2023-07-15T02:11:00.534Z,66.19
2023-07-15T02:13:49.096Z,66.74
2023-07-15T02:17:16.490Z,66.61
2023-07-15T02:20:50.132Z,66.70
2023-07-15T02:24:02.448Z,66.44
2023-07-15T02:26:47.219Z,66.45
2023-07-15T02:30:14.440Z,65.65
2023-07-15T02:33:45.779Z,66.60
2023-07-15T02:36:54.777Z,66.57
2023-07-15T02:40:30.024Z,66.56
2023-07-15T02:43:59.426Z,66.17
2023-07-15T02:47:26.317Z,66.17
2023-07-15T02:50:22.566Z,66.12
2023-07-15T02:53:52.441Z,65.51
2023-07-15T02:57:04.313Z,66.02
2023-07-15T03:00:04.825Z,66.38
2023-07-15T03:03:14.870Z,66.09
2023-07-15T03:06:21.541Z,66.31
2023-07-15T03:09:24.371Z,66.33
2023-07-15T03:11:52.339Z,66.41
2023-07-15T03:15:00.573Z,66.30
2023-07-15T03:17:51.473Z,66.77
2023-07-15T03:20:32.560Z,66.26
2023-07-15T03:23:35.096Z,66.33
2023-07-15T03:26:43.281Z,66.56
2023-07-15T03:29:47.289Z,66.44
2023-07-15T03:32:31.449Z,66.76
2023-07-15T03:35:31.437Z,67.03
2023-07-15T03:38:22.196Z,66.99
2023-07-15T03:41:30.030Z,67.12
2023-07-15T03:44:18.124Z,67.53
2023-07-15T03:47:47.322Z,67.20
2023-07-15T03:50:41.249Z,67.49
2023-07-15T03:53:28.947Z,67.27
2023-07-15T03:56:38.584Z,67.36
2023-07-15T03:59:45.526Z,67.85
2023-07-15T04:02:35.384Z,67.73
2023-07-15T04:05:46.288Z,68.13
2023-07-15T04:08:21.667Z,68.61
2023-07-15T04:11:18.171Z,68.48
2023-07-15T04:14:07.252Z,67.94
2023-07-15T04:17:16.605Z,68.12
2023-07-15T04:20:21.765Z,68.25
2023-07-15T04:22:51.452Z,68.54
2023-07-15T04:25:40.700Z,67.43
2023-07-15T04:28:21.424Z,67.32
2023-07-15T04:31:17.720Z,67.11
2023-07-15T04:34:44.540Z,66.86
2023-07-15T04:37:48.676Z,66.78
2023-07-15T04:41:15.591Z,66.81
2023-07-15T04:44:17.261Z,66.73
2023-07-15T04:47:44.212Z,66.89
2023-07-15T04:51:11.486Z,66.77
2023-07-15T04:54:19.784Z,66.68
2023-07-15T04:57:16.511Z,66.78
2023-07-15T05:00:28.679Z,67.09
2023-07-15T05:03:03.412Z,66.94
2023-07-15T05:05:55.635Z,66.94
2023-07-15T05:09:22.835Z,66.86
2023-07-15T05:11:51.057Z,67.64
2023-07-15T05:15:04.068Z,67.28
2023-07-15T05:18:23.101Z,67.44
2023-07-15T05:21:32.851Z,66.97
2023-07-15T05:24:05.990Z,66.78
2023-07-15T05:27:28.995Z,67.06
2023-07-15T05:30:18.863Z,66.77
2023-07-15T05:33:26.401Z,66.77
2023-07-15T05:36:53.339Z,66.87
2023-07-15T05:40:20.693Z,66.70
2023-07-15T05:43:47.706Z,66.42
2023-07-15T05:46:57.333Z,66.14
2023-07-15T05:50:31.024Z,66.00
2023-07-15T05:53:58.888Z,65.61
2023-07-15T05:57:26.805Z,65.78
2023-07-15T06:00:54.218Z,65.60
2023-07-15T06:04:21.058Z,65.08
2023-07-15T06:07:29.683Z,64.21
2023-07-15T06:10:56.679Z,64.03
2023-07-15T06:14:10.689Z,63.92
2023-07-15T06:17:37.562Z,62.87
2023-07-15T06:21:20.567Z,62.65
2023-07-15T06:24:27.755Z,62.02
2023-07-15T06:27:36.082Z,61.66
2023-07-15T06:30:53.165Z,61.44
2023-07-15T06:34:05.331Z,61.12
2023-07-15T06:37:13.624Z,60.88
2023-07-15T06:40:26.018Z,60.06
2023-07-15T06:43:52.986Z,59.73
2023-07-15T06:46:45.931Z,59.11
2023-07-15T06:49:36.471Z,59.70
2023-07-15T06:52:48.146Z,59.57
2023-07-15T06:55:42.420Z,59.67
2023-07-15T06:59:09.746Z,60.61
2023-07-15T07:02:38.786Z,60.69
2023-07-15T07:05:26.465Z,60.24
2023-07-15T07:08:53.433Z,60.20
2023-07-15T07:12:26.302Z,59.74
2023-07-15T07:15:33.881Z,59.36
2023-07-15T07:19:01.022Z,59.44
2023-07-15T07:22:27.972Z,59.09
2023-07-15T07:25:55.660Z,58.96
2023-07-15T07:29:32.834Z,58.33
2023-07-15T07:33:00.683Z,57.89
2023-07-15T07:36:28.297Z,57.63
2023-07-15T07:39:27.461Z,57.49
2023-07-15T07:42:43.915Z,56.54
2023-07-15T07:46:12.695Z,56.52
2023-07-15T07:49:39.611Z,55.74
2023-07-15T07:52:57.868Z,55.18
2023-07-15T07:56:24.814Z,54.52
2023-07-15T07:59:35.005Z,54.40
2023-07-15T08:03:01.944Z,54.49
2023-07-15T08:06:30.002Z,54.35
2023-07-15T08:09:59.799Z,54.10
2023-07-15T08:13:29.954Z,53.23
2023-07-15T08:17:33.368Z,52.67
2023-07-15T08:21:54.648Z,52.35
2023-07-15T08:25:41.749Z,51.09
2023-07-15T08:29:29.419Z,51.65
2023-07-15T08:33:17.339Z,51.72
2023-07-15T08:37:04.814Z,50.26
2023-07-15T08:40:51.660Z,48.78
2023-07-15T08:44:40.034Z,48.84
2023-07-15T08:48:26.995Z,49.61
2023-07-15T08:52:15.815Z,49.82
2023-07-15T08:56:05.750Z,49.66
2023-07-15T08:59:54.461Z,48.92
2023-07-15T09:03:21.800Z,48.13
2023-07-15T09:07:10.986Z,48.68
2023-07-15T09:14:52.790Z,47.62
2023-07-15T09:18:37.368Z,47.60
2023-07-15T09:22:35.486Z,46.72
2023-07-15T09:26:35.724Z,46.34
2023-07-15T09:30:29.474Z,46.37
2023-07-15T09:34:46.616Z,46.38
2023-07-15T09:38:36.871Z,44.45
2023-07-15T09:42:22.915Z,44.27
2023-07-15T09:46:14.466Z,43.73
2023-07-15T09:50:05.654Z,43.00
2023-07-15T09:53:55.750Z,43.93
2023-07-15T09:57:46.442Z,44.58
2023-07-15T10:01:37.118Z,44.28
2023-07-15T10:05:28.532Z,44.37
2023-07-15T10:09:16.961Z,44.70
2023-07-15T10:13:05.475Z,43.83
2023-07-15T10:16:56.408Z,43.64
2023-07-15T10:20:44.285Z,42.78
2023-07-15T10:24:34.980Z,42.31
2023-07-15T10:28:26.367Z,42.86
2023-07-15T10:32:20.439Z,42.45
2023-07-15T10:36:25.376Z,41.85
2023-07-15T10:40:18.930Z,41.67
2023-07-15T10:44:15.545Z,41.57
2023-07-15T10:48:04.573Z,41.76
2023-07-15T10:51:55.826Z,40.89
2023-07-15T10:55:44.294Z,41.30
2023-07-15T10:59:32.920Z,40.27
2023-07-15T11:03:27.907Z,40.33
2023-07-15T11:07:13.363Z,40.34
2023-07-15T11:11:13.962Z,39.80
2023-07-15T11:15:05.410Z,40.23
2023-07-15T11:19:01.894Z,40.02
2023-07-15T11:22:49.785Z,39.72
2023-07-15T11:26:49.957Z,38.92
2023-07-15T11:30:40.800Z,38.06
2023-07-15T11:34:30.402Z,38.25
2023-07-15T11:38:13.942Z,37.54
2023-07-15T11:42:12.120Z,36.54
2023-07-15T11:46:00.538Z,36.56
2023-07-15T11:49:51.604Z,36.74
2023-07-15T11:53:44.986Z,36.33
2023-07-15T11:57:39.984Z,33.43
2023-07-15T12:01:27.859Z,34.85
2023-07-15T12:05:17.990Z,35.04
2023-07-15T12:09:05.938Z,34.92
2023-07-15T12:12:55.730Z,35.52
2023-07-15T12:16:43.505Z,35.90
2023-07-15T12:20:35.440Z,35.38
2023-07-15T12:24:26.298Z,35.63
2023-07-15T12:28:14.021Z,34.79
2023-07-15T12:32:02.354Z,35.42
2023-07-15T12:35:56.346Z,35.35
2023-07-15T12:39:44.292Z,35.60
2023-07-15T12:43:11.736Z,35.39
2023-07-15T12:47:06.160Z,35.12
2023-07-15T12:50:55.269Z,35.02
2023-07-15T12:54:43.532Z,34.81
2023-07-15T13:02:26.348Z,34.69
2023-07-15T13:06:14.185Z,34.11
2023-07-15T13:10:06.503Z,34.52
2023-07-15T13:13:54.480Z,34.68
2023-07-15T13:17:44.345Z,34.26
2023-07-15T13:21:35.387Z,33.81
2023-07-15T13:25:23.489Z,34.38
2023-07-15T13:29:27.545Z,34.58
2023-07-15T13:33:15.977Z,34.65
2023-07-15T13:37:03.907Z,34.38
2023-07-15T13:44:37.892Z,34.55
2023-07-15T13:48:26.126Z,34.49
2023-07-15T13:52:26.208Z,34.40
2023-07-15T13:56:14.785Z,33.36
2023-07-15T14:00:06.862Z,33.53
2023-07-15T14:06:50.280Z,33.14
2023-07-15T14:10:39.355Z,33.72
2023-07-15T14:14:28.638Z,33.75
2023-07-15T14:18:17.119Z,33.59
2023-07-15T14:22:15.977Z,33.95
2023-07-15T14:26:08.096Z,33.73
2023-07-15T14:29:59.016Z,33.99
2023-07-15T14:33:46.759Z,33.96
2023-07-15T14:37:42.662Z,33.98
2023-07-15T14:41:30.995Z,33.81
2023-07-15T14:45:18.793Z,34.11
2023-07-15T14:48:52.826Z,34.25
2023-07-15T14:52:41.808Z,33.89
2023-07-15T14:56:31.220Z,33.31
2023-07-15T15:00:18.902Z,32.92
2023-07-15T15:04:07.016Z,33.08
2023-07-15T15:07:56.567Z,33.24
2023-07-15T15:11:46.843Z,33.59
2023-07-15T15:15:35.988Z,34.31
2023-07-15T15:19:24.249Z,34.38
2023-07-15T15:23:12.085Z,33.54
2023-07-15T15:26:43.668Z,33.89
2023-07-15T15:30:37.646Z,34.13
2023-07-15T15:34:27.951Z,34.52
2023-07-15T15:38:19.455Z,34.52
2023-07-15T15:42:08.021Z,34.23
2023-07-15T15:45:56.106Z,34.29
2023-07-15T15:49:05.834Z,34.35
2023-07-15T15:53:01.769Z,34.02
2023-07-15T15:56:57.960Z,34.23
2023-07-15T16:00:46.857Z,34.25
2023-07-15T16:04:39.997Z,34.44
2023-07-15T16:08:27.908Z,34.70
2023-07-15T16:12:18.069Z,34.02
2023-07-15T16:16:06.894Z,34.46
2023-07-15T16:19:54.713Z,35.13
2023-07-15T16:23:24.843Z,35.34
2023-07-15T16:27:13.273Z,35.69
2023-07-15T16:31:04.158Z,35.61
2023-07-15T16:34:53.457Z,35.82
2023-07-15T16:38:41.183Z,36.60
2023-07-15T16:42:32.302Z,36.42
2023-07-15T16:46:21.940Z,36.70
2023-07-15T16:50:10.420Z,37.01
2023-07-15T16:53:58.185Z,37.41
2023-07-15T16:57:46.609Z,37.72
2023-07-15T17:01:38.270Z,37.65
2023-07-15T17:05:26.453Z,37.78
2023-07-15T17:13:09.632Z,38.70
2023-07-15T17:16:57.362Z,38.66
2023-07-15T17:20:53.385Z,39.19
2023-07-15T17:24:43.877Z,39.27
2023-07-15T17:28:32.973Z,39.53
2023-07-15T17:32:21.809Z,39.82
2023-07-15T17:36:19.115Z,40.17
2023-07-15T17:40:07.894Z,40.84
2023-07-15T17:43:56.712Z,41.78
2023-07-15T17:47:50.394Z,43.26
2023-07-15T17:51:38.119Z,43.74
2023-07-15T17:55:28.947Z,44.10
2023-07-15T17:59:20.028Z,45.12
2023-07-15T18:03:07.896Z,44.84
2023-07-15T18:07:03.911Z,45.20
2023-07-15T18:10:52.576Z,45.76
2023-07-15T18:14:41.774Z,46.49
2023-07-15T18:18:32.537Z,47.02
2023-07-15T18:22:24.139Z,47.55
2023-07-15T18:30:03.452Z,49.25
2023-07-15T18:33:53.534Z,50.00
2023-07-15T18:37:42.876Z,51.07
2023-07-15T18:41:30.749Z,51.84
2023-07-15T18:45:18.581Z,52.29
2023-07-15T18:49:08.994Z,52.79
2023-07-15T18:53:00.919Z,53.00
2023-07-15T18:56:48.768Z,53.43
2023-07-15T19:04:28.604Z,54.42
2023-07-15T19:08:16.706Z,54.58
2023-07-15T19:12:04.105Z,55.22
2023-07-15T19:15:51.707Z,55.05
2023-07-15T19:19:42.164Z,55.01
2023-07-15T19:23:30.003Z,55.22
2023-07-15T19:27:18.642Z,55.55
2023-07-15T19:30:46.560Z,56.59
2023-07-15T19:34:36.730Z,56.37
2023-07-15T19:38:23.519Z,57.29
2023-07-15T19:42:11.625Z,56.67
2023-07-15T19:45:58.802Z,56.91
2023-07-15T19:49:49.113Z,57.72
2023-07-15T19:53:35.959Z,57.79
2023-07-15T19:57:31.336Z,58.31
2023-07-15T20:01:21.687Z,58.36
2023-07-15T20:05:18.498Z,58.10
2023-07-15T20:09:05.407Z,59.05
2023-07-15T20:12:53.587Z,59.60
2023-07-15T20:16:46.329Z,59.29
2023-07-15T20:20:33.642Z,59.15
2023-07-15T20:24:00.812Z,59.46
2023-07-15T20:27:49.144Z,59.90
2023-07-15T20:31:38.777Z,60.07
2023-07-15T20:35:25.833Z,60.35
2023-07-15T20:39:13.012Z,60.34
2023-07-15T20:43:00.317Z,60.78
2023-07-15T20:46:32.778Z,61.37
2023-07-15T20:50:00.473Z,61.38
2023-07-15T20:53:27.843Z,61.58
2023-07-15T20:57:13.980Z,62.79
2023-07-15T21:04:45.368Z,62.81
2023-07-15T21:08:32.364Z,61.27
2023-07-15T21:12:19.282Z,61.80
2023-07-15T21:15:46.886Z,59.95
2023-07-15T21:19:21.379Z,59.43
2023-07-15T21:22:48.403Z,59.86
2023-07-15T21:26:15.879Z,60.28
2023-07-15T21:29:43.149Z,61.33
2023-07-15T21:33:17.979Z,61.40
2023-07-15T21:36:30.565Z,61.44
2023-07-15T21:39:51.247Z,63.69
2023-07-15T21:43:18.260Z,64.16
2023-07-15T21:46:41.609Z,63.77
2023-07-15T21:50:28.421Z,63.62
2023-07-15T21:53:39.485Z,63.26
2023-07-15T21:57:06.507Z,62.51
2023-07-15T22:00:21.286Z,61.65
2023-07-15T22:03:28.169Z,61.20
2023-07-15T22:06:55.497Z,61.45
2023-07-15T22:10:23.788Z,61.42
2023-07-15T22:13:36.807Z,61.06
2023-07-15T22:16:45.600Z,58.44
2023-07-15T22:20:13.869Z,59.47
2023-07-15T22:23:31.883Z,59.78
2023-07-15T22:26:59.511Z,60.68
2023-07-15T22:30:26.358Z,61.22
2023-07-15T22:33:54.073Z,62.68
2023-07-15T22:37:40.925Z,63.73
2023-07-15T22:40:58.942Z,62.27
2023-07-15T22:44:26.227Z,61.56
2023-07-15T22:48:12.594Z,61.52
2023-07-15T22:51:26.896Z,63.76
2023-07-15T22:54:54.674Z,63.06
2023-07-15T22:58:02.838Z,62.03
2023-07-15T23:01:30.381Z,62.55
2023-07-15T23:04:58.922Z,62.60
2023-07-15T23:08:27.790Z,63.21
2023-07-15T23:11:55.003Z,63.02
2023-07-15T23:15:25.008Z,63.45
2023-07-15T23:19:01.670Z,62.97
2023-07-15T23:22:15.654Z,63.49
2023-07-15T23:25:43.901Z,63.32
2023-07-15T23:29:30.725Z,63.43
2023-07-15T23:32:38.772Z,62.90
2023-07-15T23:36:06.042Z,62.10
2023-07-15T23:39:52.894Z,63.47
2023-07-15T23:43:06.472Z,64.02
2023-07-15T23:46:22.621Z,62.95
2023-07-15T23:49:37.110Z,62.14
2023-07-15T23:52:49.045Z,63.44
2023-07-15T23:56:16.650Z,63.57
2023-07-15T23:59:46.828Z,63.44
